< < Back
Terminal Aerodrome Forecast


Current Version              Previous Versions:   1  2  3  4  5  6  7  8  9  

Terminal Aerodrome Forecast

510
FTUS42 KJAX 300545
TAFSSI
TAF
KSSI 300545Z 3006/3106 06003KT P6SM FEW020
     FM301100 09007KT P6SM VCSH SCT020 BKN030
      TEMPO 3011/3015 4SM -SHRA BKN020
     FM301700 09012KT P6SM SCT025
     FM310100 12006KT P6SM SCT020=

Latest METAR

N/A

USA.gov is the U.S. government's official web portal to all federal, state and local government web resources and services.